createdAt,value
2018-02-12T00:01:07.401Z,79.36
2018-02-12T00:06:18.202Z,79.89
2018-02-12T00:08:46.913Z,80.12
2018-02-12T00:11:14.624Z,79.40
2018-02-12T00:13:42.335Z,80.19
2018-02-12T00:16:10.001Z,79.94
2018-02-12T00:18:39.566Z,79.25
2018-02-12T00:21:09.302Z,78.78
2018-02-12T00:23:37.308Z,79.04
2018-02-12T00:26:06.411Z,79.57
2018-02-12T00:28:35.228Z,80.00
2018-02-12T00:31:03.172Z,78.33
2018-02-12T00:33:31.042Z,79.20
2018-02-12T00:35:58.809Z,78.53
2018-02-12T00:38:26.475Z,79.88
2018-02-12T00:40:54.278Z,80.14
2018-02-12T00:43:21.996Z,79.13
2018-02-12T00:45:49.632Z,78.99
2018-02-12T00:48:17.272Z,78.96
2018-02-12T00:50:44.981Z,79.58
2018-02-12T00:53:12.591Z,78.96
2018-02-12T00:55:41.178Z,79.28
2018-02-12T00:58:08.809Z,79.19
2018-02-12T01:00:36.474Z,79.81
2018-02-12T01:03:04.090Z,79.61
2018-02-12T01:05:31.744Z,79.70
2018-02-12T01:07:59.404Z,80.22
2018-02-12T01:10:27.994Z,78.87
2018-02-12T01:12:55.663Z,79.96
2018-02-12T01:15:23.302Z,79.95
2018-02-12T01:17:50.979Z,79.59
2018-02-12T01:20:18.718Z,79.83
2018-02-12T01:22:46.429Z,79.54
2018-02-12T01:25:14.090Z,79.48
2018-02-12T01:27:41.735Z,78.85
2018-02-12T01:30:09.496Z,78.44
2018-02-12T01:32:37.153Z,78.74
2018-02-12T01:35:05.336Z,78.16
2018-02-12T01:37:33.013Z,79.78
2018-02-12T01:40:00.664Z,78.71
2018-02-12T01:42:28.425Z,79.36
2018-02-12T01:44:56.075Z,79.11
2018-02-12T01:47:24.289Z,79.73
2018-02-12T01:50:03.706Z,79.80
2018-02-12T01:52:31.349Z,79.79
2018-02-12T01:54:59.099Z,79.88
2018-02-12T01:57:26.791Z,78.64
2018-02-12T01:59:54.408Z,79.71
2018-02-12T02:02:25.396Z,79.80
2018-02-12T02:04:58.419Z,79.33
2018-02-12T02:07:28.118Z,78.23
2018-02-12T02:09:57.556Z,78.76
2018-02-12T02:12:25.289Z,79.53
2018-02-12T02:14:53.104Z,79.39
2018-02-12T02:17:20.790Z,79.05
2018-02-12T02:19:48.439Z,78.88
2018-02-12T02:22:16.060Z,77.43
2018-02-12T02:24:44.738Z,78.89
2018-02-12T02:27:12.449Z,79.18
2018-02-12T02:29:40.096Z,79.76
2018-02-12T02:32:09.021Z,78.41
2018-02-12T02:34:36.621Z,79.95
2018-02-12T02:37:04.440Z,78.62
2018-02-12T02:39:35.235Z,78.45
2018-02-12T02:42:02.880Z,78.57
2018-02-12T02:44:30.563Z,78.76
2018-02-12T02:46:58.234Z,79.19
2018-02-12T02:49:25.914Z,78.00
2018-02-12T02:51:53.529Z,79.64
2018-02-12T02:54:21.221Z,78.83
2018-02-12T02:56:48.915Z,79.04
2018-02-12T02:59:16.625Z,78.79
2018-02-12T03:01:44.270Z,79.60
2018-02-12T03:04:11.891Z,79.21
2018-02-12T03:06:39.476Z,79.46
2018-02-12T03:09:07.092Z,78.80
2018-02-12T03:11:34.774Z,79.71
2018-02-12T03:14:02.431Z,78.91
2018-02-12T03:16:30.246Z,79.46
2018-02-12T03:18:57.875Z,79.03
2018-02-12T03:21:25.902Z,78.87
2018-02-12T03:23:53.560Z,78.67
2018-02-12T03:26:21.224Z,78.96
2018-02-12T03:28:48.872Z,78.75
2018-02-12T03:31:16.543Z,78.75
2018-02-12T03:33:44.243Z,79.53
2018-02-12T03:36:12.126Z,78.11
2018-02-12T03:38:39.814Z,78.19
2018-02-12T03:41:07.469Z,79.29
2018-02-12T03:43:35.199Z,79.10
2018-02-12T03:46:02.906Z,78.95
2018-02-12T03:48:30.568Z,79.60
2018-02-12T03:50:58.260Z,79.02
2018-02-12T03:53:25.915Z,79.77
2018-02-12T03:55:53.607Z,79.42
2018-02-12T03:58:21.293Z,79.42
2018-02-12T04:00:49.583Z,78.95
2018-02-12T04:03:17.216Z,78.97
2018-02-12T04:05:44.906Z,78.77
2018-02-12T04:08:12.561Z,79.92
2018-02-12T04:10:40.247Z,79.78
2018-02-12T04:13:07.994Z,78.75
2018-02-12T04:15:35.615Z,78.81
2018-02-12T04:18:03.263Z,79.04
2018-02-12T04:20:30.933Z,78.55
2018-02-12T04:22:58.633Z,79.36
2018-02-12T04:25:26.409Z,77.90
2018-02-12T04:27:54.064Z,79.69
2018-02-12T04:30:21.785Z,78.22
2018-02-12T04:32:49.498Z,79.10
2018-02-12T04:35:17.132Z,78.11
2018-02-12T04:37:44.969Z,77.91
2018-02-12T04:40:12.692Z,78.91
2018-02-12T04:42:41.998Z,78.82
2018-02-12T04:45:09.629Z,79.84
2018-02-12T04:47:37.312Z,78.89
2018-02-12T04:50:05.010Z,79.07
2018-02-12T04:52:32.713Z,79.20
2018-02-12T04:55:00.399Z,78.72
2018-02-12T04:57:28.266Z,78.35
2018-02-12T04:59:55.928Z,78.50
2018-02-12T05:02:23.592Z,78.28
2018-02-12T05:04:51.266Z,78.28
2018-02-12T05:07:18.941Z,78.94
2018-02-12T05:09:46.666Z,78.80
2018-02-12T05:12:14.306Z,78.48
2018-02-12T05:14:41.905Z,78.58
2018-02-12T05:17:09.985Z,78.99
2018-02-12T05:19:37.653Z,78.48
2018-02-12T05:22:05.562Z,78.32
2018-02-12T05:24:33.201Z,70.89
2018-02-12T05:27:00.983Z,69.48
2018-02-12T05:29:28.611Z,69.05
2018-02-12T05:31:56.480Z,68.60
2018-02-12T05:34:24.182Z,68.24
2018-02-12T05:36:51.872Z,68.30
2018-02-12T05:39:19.625Z,67.96
2018-02-12T05:41:47.305Z,68.35
2018-02-12T05:44:15.028Z,68.31
2018-02-12T05:46:44.602Z,68.89
2018-02-12T05:49:12.460Z,68.80
2018-02-12T05:51:40.138Z,68.49
2018-02-12T05:54:09.058Z,68.36
2018-02-12T05:56:36.773Z,68.30
2018-02-12T05:59:04.495Z,68.16
2018-02-12T06:01:32.285Z,68.83
2018-02-12T06:03:59.931Z,68.55
2018-02-12T06:06:27.630Z,68.24
2018-02-12T06:08:55.282Z,67.94
2018-02-12T06:11:22.961Z,67.71
2018-02-12T06:13:50.655Z,67.54
2018-02-12T06:16:18.315Z,68.24
2018-02-12T06:18:46.005Z,67.52
2018-02-12T06:21:13.654Z,67.63
2018-02-12T06:23:41.393Z,67.08
2018-02-12T06:26:09.083Z,66.68
2018-02-12T06:28:37.251Z,66.37
2018-02-12T06:31:04.948Z,66.31
2018-02-12T06:33:33.222Z,66.01
2018-02-12T06:36:00.984Z,66.24
2018-02-12T06:38:29.399Z,66.08
2018-02-12T06:40:57.246Z,65.83
2018-02-12T06:43:24.840Z,64.66
2018-02-12T06:45:52.645Z,64.09
2018-02-12T06:48:20.403Z,63.47
2018-02-12T06:50:48.180Z,62.99
2018-02-12T06:53:15.955Z,62.47
2018-02-12T06:55:43.664Z,62.16
2018-02-12T06:58:11.324Z,61.90
2018-02-12T07:00:38.991Z,61.66
2018-02-12T07:03:06.648Z,61.16
2018-02-12T07:05:34.289Z,60.76
2018-02-12T07:08:01.958Z,60.49
2018-02-12T07:10:29.564Z,60.31
2018-02-12T07:12:57.263Z,60.03
2018-02-12T07:15:24.884Z,59.89
2018-02-12T07:17:52.538Z,59.73
2018-02-12T07:20:20.175Z,59.56
2018-02-12T07:22:47.827Z,59.07
2018-02-12T07:25:15.549Z,59.17
2018-02-12T07:27:43.196Z,59.06
2018-02-12T07:30:10.970Z,58.62
2018-02-12T07:32:38.661Z,58.77
2018-02-12T07:35:06.346Z,58.53
2018-02-12T07:37:33.968Z,58.32
2018-02-12T07:40:01.608Z,57.69
2018-02-12T07:42:29.262Z,57.49
2018-02-12T07:44:57.832Z,57.55
2018-02-12T07:47:25.570Z,57.50
2018-02-12T07:49:53.167Z,57.91
2018-02-12T07:52:20.974Z,57.77
2018-02-12T07:54:48.677Z,58.04
2018-02-12T07:57:16.312Z,58.39
2018-02-12T07:59:43.990Z,58.40
2018-02-12T08:02:11.638Z,58.20
2018-02-12T08:04:39.295Z,58.30
2018-02-12T08:07:07.043Z,57.97
2018-02-12T08:09:34.712Z,57.74
2018-02-12T08:12:02.401Z,57.56
2018-02-12T08:14:30.012Z,57.35
2018-02-12T08:16:57.719Z,57.54
2018-02-12T08:19:25.463Z,57.83
2018-02-12T08:21:53.574Z,57.67
2018-02-12T08:24:21.255Z,57.68
2018-02-12T08:26:48.932Z,57.83
2018-02-12T08:29:16.601Z,57.61
2018-02-12T08:31:44.270Z,57.67
2018-02-12T08:34:11.946Z,58.03
2018-02-12T08:36:39.619Z,57.98
2018-02-12T08:39:07.305Z,58.10
2018-02-12T08:41:34.967Z,58.56
2018-02-12T08:44:02.695Z,58.45
2018-02-12T08:46:30.325Z,58.49
2018-02-12T08:48:58.035Z,58.60
2018-02-12T08:51:25.703Z,58.53
2018-02-12T08:53:53.408Z,58.65
2018-02-12T08:56:21.049Z,58.76
2018-02-12T08:58:48.870Z,58.69
2018-02-12T09:01:16.600Z,58.37
2018-02-12T09:03:44.256Z,58.28
2018-02-12T09:06:11.960Z,58.17
2018-02-12T09:08:39.658Z,58.04
2018-02-12T09:11:07.321Z,58.25
2018-02-12T09:13:35.082Z,60.18
2018-02-12T09:16:02.705Z,58.67
2018-02-12T09:18:30.349Z,58.72
2018-02-12T09:20:58.054Z,58.88
2018-02-12T09:23:25.688Z,60.17
2018-02-12T09:25:53.332Z,59.37
2018-02-12T09:28:20.986Z,60.25
2018-02-12T09:30:48.675Z,59.18
2018-02-12T09:33:16.494Z,59.82
2018-02-12T09:35:44.114Z,59.77
2018-02-12T09:38:11.759Z,59.37
2018-02-12T09:40:39.410Z,59.19
2018-02-12T09:43:07.070Z,59.72
2018-02-12T09:45:34.728Z,58.58
2018-02-12T09:48:02.542Z,58.76
2018-02-12T09:50:30.386Z,57.61
2018-02-12T09:52:58.060Z,57.68
2018-02-12T09:55:25.688Z,57.88
2018-02-12T09:57:53.326Z,56.90
2018-02-12T10:00:21.033Z,56.75
2018-02-12T10:02:48.702Z,57.05
2018-02-12T10:05:16.360Z,55.97
2018-02-12T10:07:44.040Z,55.81
2018-02-12T10:10:11.919Z,55.91
2018-02-12T10:12:39.647Z,56.03
2018-02-12T10:15:07.315Z,55.58
2018-02-12T10:17:35.055Z,55.72
2018-02-12T10:20:02.741Z,57.55
2018-02-12T10:22:30.376Z,58.02
2018-02-12T10:24:58.071Z,60.06
2018-02-12T10:27:25.709Z,57.11
2018-02-12T10:29:53.380Z,56.77
2018-02-12T10:32:21.052Z,56.48
2018-02-12T10:34:48.677Z,56.38
2018-02-12T10:37:16.373Z,55.92
2018-02-12T10:39:44.056Z,55.55
2018-02-12T10:42:11.698Z,56.00
2018-02-12T10:44:39.384Z,55.07
2018-02-12T10:47:07.022Z,54.13
2018-02-12T10:49:35.536Z,54.33
2018-02-12T10:52:03.185Z,54.37
2018-02-12T10:54:30.798Z,54.39
2018-02-12T10:56:58.523Z,55.44
2018-02-12T10:59:26.211Z,56.48
2018-02-12T11:01:53.915Z,55.90
2018-02-12T11:04:21.643Z,55.18
2018-02-12T11:06:49.343Z,54.37
2018-02-12T11:09:16.980Z,53.82
2018-02-12T11:14:35.603Z,52.44
2018-02-12T11:17:03.260Z,53.15
2018-02-12T11:19:30.907Z,53.82
2018-02-12T11:21:58.559Z,53.84
2018-02-12T11:24:26.202Z,53.49
2018-02-12T11:26:53.883Z,53.39
2018-02-12T11:29:21.544Z,53.74
2018-02-12T11:31:49.246Z,53.68
2018-02-12T11:34:16.909Z,53.50
2018-02-12T11:36:44.583Z,53.73
2018-02-12T11:39:12.242Z,54.34
2018-02-12T11:41:40.018Z,54.17
2018-02-12T11:44:07.724Z,53.95
2018-02-12T11:46:35.399Z,53.55
2018-02-12T11:49:03.048Z,53.41
2018-02-12T11:51:30.741Z,52.82
2018-02-12T11:53:58.369Z,52.27
2018-02-12T11:56:26.103Z,51.68
2018-02-12T11:58:53.777Z,51.21
2018-02-12T12:01:21.493Z,50.59
2018-02-12T12:03:49.168Z,50.76
2018-02-12T12:06:16.830Z,50.45
2018-02-12T12:08:44.544Z,50.50
2018-02-12T12:11:12.225Z,50.59
2018-02-12T12:13:39.903Z,50.50
2018-02-12T12:16:07.556Z,50.43
2018-02-12T12:18:35.213Z,50.46
2018-02-12T12:21:02.895Z,50.76
2018-02-12T12:23:30.935Z,51.07
2018-02-12T12:25:58.604Z,51.21
2018-02-12T12:28:26.277Z,51.58
2018-02-12T12:30:53.886Z,51.99
2018-02-12T12:33:21.586Z,51.97
2018-02-12T12:35:49.353Z,51.82
2018-02-12T12:38:17.027Z,51.70
2018-02-12T12:40:44.776Z,51.61
2018-02-12T12:43:12.519Z,51.88
2018-02-12T12:45:40.312Z,51.36
2018-02-12T12:48:08.042Z,51.56
2018-02-12T12:50:35.713Z,51.40
2018-02-12T12:53:03.344Z,51.40
2018-02-12T12:55:30.987Z,51.22
2018-02-12T12:57:58.636Z,51.22
2018-02-12T13:00:26.352Z,51.33
2018-02-12T13:02:56.396Z,50.73
2018-02-12T13:05:24.058Z,50.76
2018-02-12T13:07:51.731Z,50.64
2018-02-12T13:10:19.411Z,50.48
2018-02-12T13:12:47.129Z,51.66
2018-02-12T13:15:14.789Z,51.35
2018-02-12T13:17:42.455Z,51.75
2018-02-12T13:20:10.129Z,51.77
2018-02-12T13:22:37.809Z,51.51
2018-02-12T13:25:05.552Z,51.89
2018-02-12T13:27:33.251Z,51.98
2018-02-12T13:30:00.891Z,51.68
2018-02-12T13:32:28.543Z,51.93
2018-02-12T13:34:56.947Z,51.79
2018-02-12T13:37:24.593Z,51.65
2018-02-12T13:39:52.259Z,51.80
2018-02-12T13:42:19.927Z,51.63
2018-02-12T13:47:19.308Z,52.02
2018-02-12T13:49:47.005Z,52.13
2018-02-12T13:52:14.681Z,52.38
2018-02-12T13:54:42.395Z,52.44
2018-02-12T13:57:10.041Z,52.93
2018-02-12T13:59:37.729Z,53.45
2018-02-12T14:02:05.425Z,53.20
2018-02-12T14:04:33.073Z,53.27
2018-02-12T14:07:02.278Z,53.51
2018-02-12T14:12:01.916Z,54.03
2018-02-12T14:14:29.576Z,54.45
2018-02-12T14:16:57.245Z,54.30
2018-02-12T14:19:24.915Z,54.51
2018-02-12T14:21:52.595Z,55.13
2018-02-12T14:24:20.271Z,54.79
2018-02-12T14:26:47.907Z,54.75
2018-02-12T14:29:15.761Z,54.67
2018-02-12T14:31:43.467Z,55.53
2018-02-12T14:34:11.134Z,56.68
2018-02-12T14:36:38.768Z,56.02
2018-02-12T14:39:06.459Z,56.32
2018-02-12T14:41:34.171Z,56.11
2018-02-12T14:44:01.903Z,55.87
2018-02-12T14:46:29.553Z,55.95
2018-02-12T14:48:57.351Z,56.09
2018-02-12T14:51:24.991Z,56.54
2018-02-12T14:53:53.635Z,59.57
2018-02-12T14:56:21.403Z,60.38
2018-02-12T14:58:49.053Z,60.05
2018-02-12T15:01:16.748Z,59.58
2018-02-12T15:03:44.414Z,59.32
2018-02-12T15:06:12.042Z,58.17
2018-02-12T15:08:40.408Z,58.39
2018-02-12T15:11:08.043Z,58.46
2018-02-12T15:13:35.664Z,58.85
2018-02-12T15:16:03.274Z,83.77
2018-02-12T15:18:31.565Z,77.25
2018-02-12T15:20:59.552Z,75.44
2018-02-12T15:23:27.904Z,70.36
2018-02-12T15:25:55.529Z,59.94
2018-02-12T15:28:23.835Z,57.94
2018-02-12T15:30:52.331Z,57.39
2018-02-12T15:33:20.006Z,57.44
2018-02-12T15:35:48.649Z,58.02
2018-02-12T15:38:16.280Z,58.63
2018-02-12T15:40:43.872Z,58.74
2018-02-12T15:43:12.320Z,59.89
2018-02-12T15:45:39.990Z,60.36
2018-02-12T15:48:07.564Z,61.17
2018-02-12T15:50:35.169Z,61.26
2018-02-12T15:53:04.199Z,61.42
2018-02-12T15:55:31.818Z,60.76
2018-02-12T15:57:59.484Z,60.43
2018-02-12T16:00:27.143Z,60.12
2018-02-12T16:02:54.739Z,59.93
2018-02-12T16:05:22.674Z,59.84
2018-02-12T16:07:50.300Z,60.06
2018-02-12T16:10:18.073Z,60.12
2018-02-12T16:12:45.676Z,61.54
2018-02-12T16:15:13.305Z,61.04
2018-02-12T16:17:41.633Z,60.53
2018-02-12T16:20:09.341Z,60.47
2018-02-12T16:22:36.957Z,61.32
2018-02-12T16:25:04.625Z,61.49
2018-02-12T16:27:32.335Z,62.81
2018-02-12T16:29:59.995Z,74.28
2018-02-12T16:32:27.582Z,73.29
2018-02-12T16:34:56.110Z,75.79
2018-02-12T16:37:23.789Z,73.59
2018-02-12T16:39:51.424Z,71.89
2018-02-12T16:42:19.027Z,73.61
2018-02-12T16:44:46.692Z,72.82
2018-02-12T16:47:15.375Z,72.79
2018-02-12T16:49:43.026Z,74.31
2018-02-12T16:52:10.612Z,74.04
2018-02-12T16:54:38.499Z,75.03
2018-02-12T16:57:06.554Z,73.62
2018-02-12T16:59:35.001Z,73.94
2018-02-12T17:02:03.003Z,73.84
2018-02-12T17:04:33.392Z,74.41
2018-02-12T17:07:02.347Z,74.39
2018-02-12T17:09:31.956Z,74.38
2018-02-12T17:12:03.886Z,73.12
2018-02-12T17:17:11.970Z,74.37
2018-02-12T17:19:40.887Z,74.37
2018-02-12T17:22:09.769Z,74.02
2018-02-12T17:24:38.300Z,73.12
2018-02-12T17:27:06.911Z,73.52
2018-02-12T17:29:37.519Z,75.33
2018-02-12T17:32:06.107Z,73.70
2018-02-12T17:34:34.634Z,75.19
2018-02-12T17:37:02.404Z,74.71
2018-02-12T17:39:30.127Z,75.37
2018-02-12T17:41:57.728Z,76.05
2018-02-12T17:44:25.553Z,74.93
2018-02-12T17:46:54.153Z,74.32
2018-02-12T17:49:22.740Z,74.17
2018-02-12T17:51:50.571Z,74.99
2018-02-12T17:54:20.699Z,75.00
2018-02-12T17:56:48.612Z,74.67
2018-02-12T17:59:17.236Z,74.57
2018-02-12T18:01:46.006Z,75.16
2018-02-12T18:04:13.947Z,74.75
2018-02-12T18:06:41.731Z,75.21
2018-02-12T18:09:13.758Z,75.70
2018-02-12T18:11:41.539Z,74.67
2018-02-12T18:14:10.639Z,75.57
2018-02-12T18:16:38.495Z,79.83
2018-02-12T18:19:06.302Z,79.72
2018-02-12T18:21:34.814Z,76.82
2018-02-12T18:24:03.146Z,77.91
2018-02-12T18:26:30.921Z,74.79
2018-02-12T18:28:58.866Z,76.88
2018-02-12T18:31:28.029Z,77.11
2018-02-12T18:33:57.210Z,75.68
2018-02-12T18:36:25.829Z,74.75
2018-02-12T18:38:53.778Z,75.91
2018-02-12T18:41:22.214Z,75.71
2018-02-12T18:43:50.025Z,74.77
2018-02-12T18:46:17.873Z,76.57
2018-02-12T18:48:46.512Z,76.29
2018-02-12T18:51:14.131Z,75.95
2018-02-12T18:53:42.663Z,76.62
2018-02-12T18:56:11.175Z,76.25
2018-02-12T18:58:38.835Z,76.16
2018-02-12T19:01:07.368Z,75.84
2018-02-12T19:03:35.580Z,76.17
2018-02-12T19:06:04.655Z,75.38
2018-02-12T19:08:32.611Z,76.04
2018-02-12T19:11:00.266Z,76.86
2018-02-12T19:13:27.968Z,76.90
2018-02-12T19:15:55.614Z,76.18
2018-02-12T19:18:23.456Z,75.63
2018-02-12T19:20:51.406Z,75.67
2018-02-12T19:23:19.090Z,75.88
2018-02-12T19:25:47.578Z,75.82
2018-02-12T19:28:15.245Z,74.81
2018-02-12T19:30:44.122Z,75.70
2018-02-12T19:33:11.686Z,76.12
2018-02-12T19:35:39.427Z,76.06
2018-02-12T19:38:07.266Z,76.23
2018-02-12T19:40:35.202Z,75.72
2018-02-12T19:43:02.913Z,75.45
2018-02-12T19:45:31.856Z,76.02
2018-02-12T19:48:00.911Z,76.81
2018-02-12T19:50:28.774Z,75.84
2018-02-12T19:52:56.478Z,76.79
2018-02-12T19:55:24.510Z,76.79
2018-02-12T19:57:52.811Z,75.86
2018-02-12T20:00:23.220Z,76.06
2018-02-12T20:02:51.391Z,75.87
2018-02-12T20:05:19.323Z,76.29
2018-02-12T20:07:47.077Z,75.25
2018-02-12T20:10:14.698Z,76.67
2018-02-12T20:12:43.216Z,77.04
2018-02-12T20:15:10.846Z,76.98
2018-02-12T20:17:38.606Z,76.70
2018-02-12T20:20:06.376Z,77.31
2018-02-12T20:22:33.982Z,85.83
2018-02-12T20:25:01.613Z,82.07
2018-02-12T20:27:29.152Z,80.11
2018-02-12T20:29:56.730Z,78.71
2018-02-12T20:32:24.345Z,79.02
2018-02-12T20:34:51.936Z,77.31
2018-02-12T20:37:19.536Z,78.16
2018-02-12T20:39:47.139Z,76.92
2018-02-12T20:42:14.918Z,78.69
2018-02-12T20:44:42.520Z,77.54
2018-02-12T20:47:10.144Z,77.06
2018-02-12T20:49:37.759Z,77.96
2018-02-12T20:52:05.369Z,77.38
2018-02-12T20:54:33.005Z,76.45
2018-02-12T20:57:00.608Z,76.65
2018-02-12T20:59:28.380Z,76.77
2018-02-12T21:01:55.978Z,76.60
2018-02-12T21:04:23.770Z,77.29
2018-02-12T21:06:51.327Z,77.76
2018-02-12T21:09:18.972Z,77.82
2018-02-12T21:11:46.542Z,77.00
2018-02-12T21:14:14.884Z,77.08
2018-02-12T21:16:42.489Z,76.80
2018-02-12T21:19:10.104Z,77.50
2018-02-12T21:21:37.670Z,76.94
2018-02-12T21:24:05.234Z,77.37
2018-02-12T21:26:32.834Z,76.50
2018-02-12T21:29:00.391Z,76.74
2018-02-12T21:31:27.998Z,75.88
2018-02-12T21:33:55.601Z,76.84
2018-02-12T21:36:23.412Z,76.82
2018-02-12T21:38:50.967Z,76.71
2018-02-12T21:41:18.582Z,77.11
2018-02-12T21:43:46.185Z,77.69
2018-02-12T21:46:13.777Z,76.87
2018-02-12T21:48:41.533Z,76.92
2018-02-12T21:51:09.128Z,76.37
2018-02-12T21:53:36.727Z,76.20
2018-02-12T21:56:04.330Z,76.95
2018-02-12T21:58:32.086Z,76.91
2018-02-12T22:00:59.680Z,77.01
2018-02-12T22:03:27.251Z,76.75
2018-02-12T22:05:54.881Z,76.55
2018-02-12T22:08:22.511Z,76.05
2018-02-12T22:10:50.095Z,75.83
2018-02-12T22:13:17.684Z,77.46
2018-02-12T22:15:45.229Z,77.47
2018-02-12T22:18:13.552Z,76.81
2018-02-12T22:20:41.117Z,76.55
2018-02-12T22:23:08.754Z,75.71
2018-02-12T22:25:36.348Z,77.20
2018-02-12T22:28:03.991Z,76.63
2018-02-12T22:30:31.613Z,76.73
2018-02-12T22:32:59.620Z,76.92
2018-02-12T22:35:27.340Z,77.13
2018-02-12T22:37:54.938Z,76.63
2018-02-12T22:40:22.511Z,76.53
2018-02-12T22:42:50.167Z,77.40
2018-02-12T22:45:17.768Z,76.38
2018-02-12T22:47:46.172Z,76.93
2018-02-12T22:50:13.806Z,76.66
2018-02-12T22:52:41.365Z,76.98
2018-02-12T22:55:08.973Z,76.84
2018-02-12T22:57:36.574Z,76.71
2018-02-12T23:00:06.578Z,76.38
2018-02-12T23:02:34.212Z,76.72
2018-02-12T23:05:02.039Z,77.04
2018-02-12T23:07:29.854Z,77.37
2018-02-12T23:09:58.097Z,76.58
2018-02-12T23:12:26.496Z,76.87
2018-02-12T23:14:54.294Z,76.62
2018-02-12T23:17:22.596Z,77.09
2018-02-12T23:19:50.157Z,76.64
2018-02-12T23:22:18.226Z,76.64
2018-02-12T23:24:45.848Z,76.96
2018-02-12T23:27:13.484Z,76.75
2018-02-12T23:29:41.230Z,77.26
2018-02-12T23:32:09.169Z,76.79
2018-02-12T23:34:36.810Z,76.69
2018-02-12T23:37:04.428Z,75.87
2018-02-12T23:39:32.228Z,76.32
2018-02-12T23:41:59.783Z,76.87
2018-02-12T23:44:27.953Z,76.95
2018-02-12T23:46:55.563Z,76.79
2018-02-12T23:49:23.204Z,76.70
2018-02-12T23:51:50.785Z,76.49
2018-02-12T23:54:25.271Z,76.96
2018-02-12T23:56:53.188Z,76.73
2018-02-12T23:59:20.948Z,76.62
